Danville, Vermont
Current Conditions -  °F | °C
As of 4:55 AM on Sunday 23 Nov 2014 (Local Time) from KCDA Reporting Station
Moderate Rain Moderate Rain  
Wind Chill: 35°   Ceiling: 1300
Heat Index: 35°   Visibility: 5mi
Dew Point: 32°   Wind: 3mph
Humidity: 89%   Direction: 100°E
Pressure: 29.98"   Gusts: NA
Location:  44.41°N, 72.14°W
Report Text: KCDA 230955Z AUTO 10003KT 5SM RA BKN013 OVC020 02/00 A2998 RMK AO2 T00190002
Loading
Personal Weather Stations






























Interactive Weather Map New forecast layout! Learn more

10-Day Weather Forecast

Advertisements
Track Severe Weather on mobile